Time;durP1;ratioP1;P1;durP2;ratioP2;P2;SDS_P1;SDS_P2;PMS_P1;PMS_P2;Temp;Humidity;BMP_temperature;BMP_pressure;BME280_temperature;BME280_humidity;BME280_pressure;Samples;Min_cycle;Max_cycle;Signal;HPM_P1;HPM_P2
2021/06/06 00:00:56;;;;;;;;;;;15.90;99.90;;;;;;5094092;28;19915;-69
2021/06/06 00:03:26;;;;;;;;;;;15.90;99.90;;;;;;5094034;28;19908;-69
2021/06/06 00:05:58;;;;;;;;;;;15.90;99.90;;;;;;5092951;28;20503;-69
2021/06/06 00:08:24;;;;;;;;;;;15.90;99.90;;;;;;5093697;28;19909;-68
2021/06/06 00:10:53;;;;;;;;;;;15.80;99.90;;;;;;5093846;28;19909;-69
2021/06/06 00:13:19;;;;;;;;;;;15.80;99.90;;;;;;5093770;28;19954;-69
2021/06/06 00:15:44;;;;;;;;;;;15.80;99.90;;;;;;5092797;28;19919;-69
2021/06/06 00:18:11;;;;;;;;;;;15.80;99.90;;;;;;5093815;28;19909;-68
2021/06/06 00:20:37;;;;;;;;;;;15.80;99.90;;;;;;5093575;28;20327;-69
2021/06/06 00:23:03;;;;;;;;;;;15.80;99.90;;;;;;5092481;28;19920;-69
2021/06/06 00:25:29;;;;;;;;;;;15.80;99.90;;;;;;5093397;28;19908;-69
2021/06/06 00:27:54;;;;;;;;;;;15.80;99.90;;;;;;5092678;28;19980;-69
2021/06/06 00:30:20;;;;;;;;;;;15.80;99.90;;;;;;5093539;28;20004;-68
2021/06/06 00:32:46;;;;;;;;;;;15.80;99.90;;;;;;5093426;28;20303;-69
2021/06/06 00:35:12;;;;;;;;;;;15.80;99.90;;;;;;5093182;28;19913;-68
2021/06/06 00:37:38;;;;;;;;;;;15.80;99.90;;;;;;5092363;28;19908;-68
2021/06/06 00:40:04;;;;;;;;;;;15.80;99.90;;;;;;5093107;28;19920;-69
2021/06/06 00:42:30;;;;;;;;;;;15.80;99.90;;;;;;5093154;28;19908;-68
2021/06/06 00:44:55;;;;;;;;;;;15.80;99.90;;;;;;5093115;28;19915;-69
2021/06/06 00:47:21;;;;;;;;;;;15.80;99.90;;;;;;5092443;28;19908;-69
2021/06/06 00:49:46;;;;;;;;;;;15.80;99.90;;;;;;5092705;28;19948;-68
2021/06/06 00:52:15;;;;;;;;;;;15.80;99.90;;;;;;5091670;28;19947;-68
2021/06/06 00:54:42;;;;;;;;;;;15.80;99.90;;;;;;5092323;28;19916;-68
2021/06/06 00:57:14;;;;;;;;;;;15.90;99.90;;;;;;5092155;28;19919;-69
2021/06/06 00:59:43;;;;;;;;;;;15.80;99.90;;;;;;5092846;28;19963;-68
2021/06/06 01:02:09;;;;;;;;;;;15.90;99.90;;;;;;5091751;28;19909;-69
2021/06/06 01:04:35;;;;;;;;;;;15.90;99.90;;;;;;5092905;28;19931;-68
2021/06/06 01:07:01;;;;;;;;;;;15.90;99.90;;;;;;5091955;28;20381;-68
2021/06/06 01:09:27;;;;;;;;;;;15.90;99.90;;;;;;5092491;28;19908;-68
2021/06/06 01:11:52;;;;;;;;;;;15.90;99.90;;;;;;5092464;28;19909;-68
2021/06/06 01:14:21;;;;;;;;;;;15.90;99.90;;;;;;5092526;28;19915;-69
2021/06/06 01:16:54;;;;;;;;;;;15.90;99.90;;;;;;5091603;28;20422;-68
2021/06/06 01:19:38;;;;;;;;;;;15.90;99.90;;;;;;5092510;28;19908;-68
2021/06/06 01:22:10;;;;;;;;;;;15.80;99.90;;;;;;5092560;28;19912;-69
2021/06/06 01:24:38;;;;;;;;;;;15.80;99.90;;;;;;5091198;28;20374;-68
2021/06/06 01:27:06;;;;;;;;;;;15.80;99.90;;;;;;5091482;28;19912;-69
2021/06/06 01:29:35;;;;;;;;;;;15.80;99.90;;;;;;5092229;28;19908;-68
2021/06/06 01:32:19;;;;;;;;;;;15.70;99.90;;;;;;5087248;28;19908;-69
2021/06/06 01:34:47;;;;;;;;;;;15.70;99.90;;;;;;5083198;28;19912;-69
2021/06/06 01:37:14;;;;;;;;;;;15.70;99.90;;;;;;5089284;28;19953;-69
2021/06/06 01:39:47;;;;;;;;;;;15.70;99.90;;;;;;5090620;28;19908;-68
2021/06/06 01:42:16;;;;;;;;;;;15.70;99.90;;;;;;5092022;28;19923;-68
2021/06/06 01:44:43;;;;;;;;;;;15.70;99.90;;;;;;5092217;28;19919;-68
2021/06/06 01:47:18;;;;;;;;;;;15.70;99.90;;;;;;5091300;28;19916;-69
2021/06/06 01:49:55;;;;;;;;;;;15.60;99.90;;;;;;5091891;28;19959;-68
2021/06/06 01:52:22;;;;;;;;;;;15.70;99.90;;;;;;5089609;28;19961;-69
2021/06/06 01:54:48;;;;;;;;;;;15.60;99.90;;;;;;5091217;28;19918;-68
2021/06/06 01:57:16;;;;;;;;;;;15.70;99.90;;;;;;5090985;28;19912;-69
2021/06/06 01:59:43;;;;;;;;;;;15.70;99.90;;;;;;5091787;28;20017;-68
2021/06/06 02:02:10;;;;;;;;;;;15.70;99.90;;;;;;5091772;28;19950;-69
2021/06/06 02:04:36;;;;;;;;;;;15.70;99.90;;;;;;5091404;28;20019;-69
2021/06/06 02:07:08;;;;;;;;;;;15.70;99.90;;;;;;5090916;28;19932;-69
2021/06/06 02:09:36;;;;;;;;;;;15.60;99.90;;;;;;5091288;28;20313;-69
2021/06/06 02:12:04;;;;;;;;;;;15.60;99.90;;;;;;5091369;28;19908;-68
2021/06/06 02:14:31;;;;;;;;;;;15.60;99.90;;;;;;5091168;28;19916;-69
2021/06/06 02:16:59;;;;;;;;;;;15.60;99.90;;;;;;5090473;28;19961;-69
2021/06/06 02:19:26;;;;;;;;;;;15.60;99.90;;;;;;5091353;28;20261;-68
2021/06/06 02:21:53;;;;;;;;;;;15.60;99.90;;;;;;5091273;28;19995;-68
2021/06/06 02:24:18;;;;;;;;;;;15.60;99.90;;;;;;5089743;28;19908;-68
2021/06/06 02:26:50;;;;;;;;;;;15.60;99.90;;;;;;5090384;28;19916;-69
2021/06/06 02:29:24;;;;;;;;;;;15.60;99.90;;;;;;5091249;28;19909;-68
2021/06/06 02:31:54;;;;;;;;;;;15.50;99.90;;;;;;5091187;28;19908;-68
2021/06/06 02:34:24;;;;;;;;;;;15.50;99.90;;;;;;5091187;28;20357;-68
2021/06/06 02:37:09;;;;;;;;;;;15.40;99.90;;;;;;5090444;28;19916;-68
2021/06/06 02:39:37;;;;;;;;;;;15.40;99.90;;;;;;5069020;28;19908;-68
2021/06/06 02:42:02;;;;;;;;;;;15.20;99.90;;;;;;5090675;28;19916;-68
2021/06/06 02:44:31;;;;;;;;;;;15.20;99.90;;;;;;5089768;28;20400;-69
2021/06/06 02:46:57;;;;;;;;;;;15.10;99.90;;;;;;5090204;28;19908;-68
2021/06/06 02:49:26;;;;;;;;;;;15.00;99.90;;;;;;5090989;28;19908;-69
2021/06/06 02:51:54;;;;;;;;;;;14.90;99.90;;;;;;5091016;28;20007;-68
2021/06/06 02:54:22;;;;;;;;;;;14.90;99.90;;;;;;5097768;28;20288;-69
2021/06/06 02:56:53;;;;;;;;;;;14.90;99.90;;;;;;5110362;28;19950;-69
2021/06/06 02:59:28;;;;;;;;;;;14.90;99.90;;;;;;5095480;28;19915;-68
2021/06/06 03:01:59;;;;;;;;;;;14.80;99.90;;;;;;5090503;28;20288;-69
2021/06/06 03:04:26;;;;;;;;;;;14.80;99.90;;;;;;5090723;28;19931;-68
2021/06/06 03:06:54;;;;;;;;;;;14.70;99.90;;;;;;5089791;28;20221;-68
2021/06/06 03:09:20;;;;;;;;;;;14.80;99.90;;;;;;5090152;28;19916;-69
2021/06/06 03:11:46;;;;;;;;;;;14.80;99.90;;;;;;5090913;28;20357;-68
2021/06/06 03:14:14;;;;;;;;;;;14.70;99.90;;;;;;5090501;28;19919;-68
2021/06/06 03:16:43;;;;;;;;;;;14.80;99.90;;;;;;5089757;28;19952;-68
2021/06/06 03:19:08;;;;;;;;;;;14.80;99.90;;;;;;5090477;28;19908;-68
2021/06/06 03:21:36;;;;;;;;;;;14.80;99.90;;;;;;5090802;28;20021;-68
2021/06/06 03:24:01;;;;;;;;;;;14.80;99.90;;;;;;5090332;28;20385;-68
2021/06/06 03:26:27;;;;;;;;;;;14.80;99.90;;;;;;5093632;28;20148;-68
2021/06/06 03:28:53;;;;;;;;;;;14.80;99.90;;;;;;5090660;28;19916;-68
2021/06/06 03:31:22;;;;;;;;;;;14.80;99.90;;;;;;5091241;28;19955;-69
2021/06/06 03:33:50;;;;;;;;;;;14.90;99.90;;;;;;5094613;28;20293;-69
2021/06/06 03:36:18;;;;;;;;;;;14.80;99.90;;;;;;5093353;28;19918;-68
2021/06/06 03:38:43;;;;;;;;;;;14.80;99.90;;;;;;5093923;28;20173;-69
2021/06/06 03:41:09;;;;;;;;;;;14.80;99.90;;;;;;5094086;28;19970;-69
2021/06/06 03:43:35;;;;;;;;;;;14.80;99.90;;;;;;5094253;28;19908;-68
2021/06/06 03:46:01;;;;;;;;;;;14.80;99.90;;;;;;5093354;28;19974;-69
2021/06/06 03:48:27;;;;;;;;;;;14.80;99.90;;;;;;5094053;28;19916;-68
2021/06/06 03:50:52;;;;;;;;;;;14.80;99.90;;;;;;5093944;28;19908;-68
2021/06/06 03:53:19;;;;;;;;;;;14.80;99.90;;;;;;5091499;28;19908;-68
2021/06/06 03:55:45;;;;;;;;;;;14.90;99.90;;;;;;5092800;28;20250;-69
2021/06/06 03:58:11;;;;;;;;;;;14.90;99.90;;;;;;5093847;28;19998;-68
2021/06/06 04:00:38;;;;;;;;;;;14.90;99.90;;;;;;5093958;28;19908;-68
2021/06/06 04:03:04;;;;;;;;;;;14.90;99.90;;;;;;5093604;28;19912;-69
2021/06/06 04:05:29;;;;;;;;;;;14.90;99.90;;;;;;5094050;28;19912;-68
2021/06/06 04:07:55;;;;;;;;;;;14.90;99.90;;;;;;5092964;28;19908;-69
2021/06/06 04:10:21;;;;;;;;;;;14.90;99.90;;;;;;5093401;28;19956;-69
2021/06/06 04:12:47;;;;;;;;;;;15.00;99.90;;;;;;5093724;28;19908;-69
2021/06/06 04:15:12;;;;;;;;;;;14.90;99.90;;;;;;5093528;28;19919;-68
2021/06/06 04:17:38;;;;;;;;;;;14.90;99.90;;;;;;5092592;28;19912;-69
2021/06/06 04:20:05;;;;;;;;;;;14.80;99.90;;;;;;5093394;28;19915;-68
2021/06/06 04:22:31;;;;;;;;;;;14.80;99.90;;;;;;5092504;28;19978;-68
2021/06/06 04:24:56;;;;;;;;;;;14.80;99.90;;;;;;5113297;28;19955;-68
2021/06/06 04:27:22;;;;;;;;;;;14.80;99.90;;;;;;5112910;28;19914;-69
2021/06/06 04:29:47;;;;;;;;;;;14.80;99.90;;;;;;5113622;28;19908;-69
2021/06/06 04:32:15;;;;;;;;;;;14.80;99.90;;;;;;5113587;28;19911;-68
2021/06/06 04:34:42;;;;;;;;;;;14.90;99.90;;;;;;5113278;28;20268;-68
2021/06/06 04:37:08;;;;;;;;;;;14.90;99.90;;;;;;5112698;28;19908;-68
2021/06/06 04:39:33;;;;;;;;;;;14.90;99.90;;;;;;5113085;28;19912;-69
2021/06/06 04:41:59;;;;;;;;;;;14.90;99.90;;;;;;5113510;28;20337;-69
2021/06/06 04:44:24;;;;;;;;;;;14.90;99.90;;;;;;5113413;28;19908;-68
2021/06/06 04:46:50;;;;;;;;;;;14.90;99.90;;;;;;5112541;28;20268;-69
2021/06/06 04:49:15;;;;;;;;;;;14.90;99.90;;;;;;5113267;28;19964;-68
2021/06/06 04:51:42;;;;;;;;;;;14.90;99.90;;;;;;5113254;28;19947;-68
2021/06/06 04:54:07;;;;;;;;;;;14.90;99.90;;;;;;5093523;28;19908;-68
2021/06/06 04:56:33;;;;;;;;;;;14.90;99.90;;;;;;5091908;28;19923;-69
2021/06/06 04:58:59;;;;;;;;;;;15.00;99.90;;;;;;5092752;28;19908;-69
2021/06/06 05:01:24;;;;;;;;;;;15.00;99.90;;;;;;5092751;28;20365;-68
2021/06/06 05:03:50;;;;;;;;;;;15.00;99.90;;;;;;5092367;28;19908;-68
2021/06/06 05:06:15;;;;;;;;;;;15.00;99.90;;;;;;5091745;28;19912;-69
2021/06/06 05:08:41;;;;;;;;;;;15.00;99.90;;;;;;5092414;28;19970;-69
2021/06/06 05:11:07;;;;;;;;;;;15.00;99.90;;;;;;5092514;28;19931;-68
2021/06/06 05:13:33;;;;;;;;;;;15.00;99.90;;;;;;5092574;28;19908;-68
2021/06/06 05:15:58;;;;;;;;;;;15.00;99.90;;;;;;5091367;28;20131;-68
2021/06/06 05:18:25;;;;;;;;;;;15.00;99.90;;;;;;5092035;28;19947;-69
2021/06/06 05:20:51;;;;;;;;;;;15.10;99.90;;;;;;5092238;28;19961;-68
2021/06/06 05:23:18;;;;;;;;;;;15.10;99.90;;;;;;5090261;28;19947;-68
2021/06/06 05:25:44;;;;;;;;;;;15.10;99.90;;;;;;5091241;28;20357;-69
2021/06/06 05:28:12;;;;;;;;;;;15.00;99.90;;;;;;5092358;28;20001;-69
2021/06/06 05:30:38;;;;;;;;;;;15.00;99.90;;;;;;5092227;28;19908;-68
2021/06/06 05:33:04;;;;;;;;;;;15.00;99.90;;;;;;5092080;28;19912;-69
2021/06/06 05:35:31;;;;;;;;;;;15.00;99.90;;;;;;5091882;28;19919;-69
2021/06/06 05:37:57;;;;;;;;;;;15.00;99.90;;;;;;5091421;28;19910;-68
2021/06/06 05:40:23;;;;;;;;;;;15.00;99.90;;;;;;5091614;28;19916;-68
2021/06/06 05:42:49;;;;;;;;;;;15.00;99.90;;;;;;5092115;28;19915;-69
2021/06/06 05:45:15;;;;;;;;;;;15.00;99.90;;;;;;5091993;28;20280;-69
2021/06/06 05:47:41;;;;;;;;;;;15.10;99.90;;;;;;5090532;28;20003;-68
2021/06/06 05:50:07;;;;;;;;;;;15.10;99.90;;;;;;5091844;28;19940;-69
2021/06/06 05:52:32;;;;;;;;;;;15.10;99.90;;;;;;5090785;28;19909;-68
2021/06/06 05:54:58;;;;;;;;;;;15.00;99.90;;;;;;5091299;28;20353;-68
2021/06/06 05:57:24;;;;;;;;;;;15.00;99.90;;;;;;5091223;28;19951;-69
2021/06/06 05:59:49;;;;;;;;;;;15.00;99.90;;;;;;5091669;28;19908;-68
2021/06/06 06:02:15;;;;;;;;;;;14.90;99.90;;;;;;5091409;28;20002;-68
2021/06/06 06:04:41;;;;;;;;;;;14.90;99.90;;;;;;5091574;28;19908;-69
2021/06/06 06:07:07;;;;;;;;;;;14.80;99.90;;;;;;5090980;28;19908;-69
2021/06/06 06:09:32;;;;;;;;;;;14.80;99.90;;;;;;5091270;28;20057;-68
2021/06/06 06:11:57;;;;;;;;;;;14.80;99.90;;;;;;5091645;28;19908;-68
2021/06/06 06:14:23;;;;;;;;;;;14.90;99.90;;;;;;5091427;28;20011;-69
2021/06/06 06:16:49;;;;;;;;;;;14.90;99.90;;;;;;5090975;28;19912;-69
2021/06/06 06:19:14;;;;;;;;;;;14.90;99.90;;;;;;5091358;28;19999;-68
2021/06/06 06:21:40;;;;;;;;;;;14.90;99.90;;;;;;5091460;28;19995;-68
2021/06/06 06:24:06;;;;;;;;;;;14.90;99.90;;;;;;5083756;28;20303;-68
2021/06/06 06:26:32;;;;;;;;;;;14.80;99.90;;;;;;5089968;28;19908;-68
2021/06/06 06:28:58;;;;;;;;;;;14.80;99.90;;;;;;5091277;28;19908;-68
2021/06/06 06:31:23;;;;;;;;;;;14.80;99.90;;;;;;5091134;28;19912;-68
2021/06/06 06:33:49;;;;;;;;;;;14.90;99.90;;;;;;5091236;28;20357;-69
2021/06/06 06:36:16;;;;;;;;;;;14.90;99.90;;;;;;5090678;28;19919;-68
2021/06/06 06:38:42;;;;;;;;;;;14.90;99.90;;;;;;5091137;28;20008;-68
2021/06/06 06:41:07;;;;;;;;;;;14.80;99.90;;;;;;5091239;28;19999;-69
2021/06/06 06:43:33;;;;;;;;;;;14.80;99.90;;;;;;5090833;28;19916;-69
2021/06/06 06:45:58;;;;;;;;;;;14.80;99.90;;;;;;5090158;28;20431;-68
2021/06/06 06:48:25;;;;;;;;;;;14.80;99.90;;;;;;5091005;28;19916;-68
2021/06/06 06:50:51;;;;;;;;;;;14.90;99.90;;;;;;5090965;28;20296;-69
2021/06/06 06:53:17;;;;;;;;;;;15.00;99.90;;;;;;5085650;28;19908;-68
2021/06/06 06:55:42;;;;;;;;;;;15.00;99.90;;;;;;5089933;28;20331;-68
2021/06/06 06:58:09;;;;;;;;;;;15.00;99.90;;;;;;5090800;28;19937;-69
2021/06/06 07:00:37;;;;;;;;;;;15.00;99.90;;;;;;5093322;28;19916;-69
2021/06/06 07:03:03;;;;;;;;;;;15.10;99.90;;;;;;5094990;28;20385;-69
2021/06/06 07:05:29;;;;;;;;;;;15.10;99.90;;;;;;5094854;28;19908;-68
2021/06/06 07:07:54;;;;;;;;;;;15.20;99.90;;;;;;5094159;28;20280;-69
2021/06/06 07:10:21;;;;;;;;;;;15.20;99.90;;;;;;5095092;28;19915;-68
2021/06/06 07:12:47;;;;;;;;;;;15.20;99.90;;;;;;5094641;28;20003;-68
2021/06/06 07:15:14;;;;;;;;;;;15.20;99.90;;;;;;5094487;28;20008;-68
2021/06/06 07:17:40;;;;;;;;;;;15.20;99.90;;;;;;5094194;28;19908;-68
2021/06/06 07:20:07;;;;;;;;;;;15.20;99.90;;;;;;5094867;28;19969;-68
2021/06/06 07:22:33;;;;;;;;;;;15.20;99.90;;;;;;5094678;28;19908;-67
2021/06/06 07:24:58;;;;;;;;;;;15.20;99.90;;;;;;5088095;28;19916;-68
2021/06/06 07:27:24;;;;;;;;;;;15.20;99.90;;;;;;5092182;28;20371;-69
2021/06/06 07:29:53;;;;;;;;;;;15.20;99.90;;;;;;5094356;28;19917;-69
2021/06/06 07:32:19;;;;;;;;;;;15.30;99.90;;;;;;5094604;28;20369;-68
2021/06/06 07:34:47;;;;;;;;;;;15.20;99.90;;;;;;5094284;28;19908;-68
2021/06/06 07:37:12;;;;;;;;;;;15.20;99.90;;;;;;5093641;28;20266;-68
2021/06/06 07:39:40;;;;;;;;;;;15.10;99.90;;;;;;5094381;28;19919;-68
2021/06/06 07:42:06;;;;;;;;;;;15.10;99.90;;;;;;5094350;28;20364;-68
2021/06/06 07:44:31;;;;;;;;;;;15.10;99.90;;;;;;5094222;28;19962;-68
2021/06/06 07:46:57;;;;;;;;;;;15.00;99.90;;;;;;5093490;28;19912;-68
2021/06/06 07:49:23;;;;;;;;;;;15.00;99.90;;;;;;5093971;28;19952;-68
2021/06/06 07:51:49;;;;;;;;;;;14.90;99.90;;;;;;5094266;28;19957;-68
2021/06/06 07:54:14;;;;;;;;;;;14.90;99.90;;;;;;5088528;28;19954;-68
2021/06/06 07:56:40;;;;;;;;;;;14.90;99.90;;;;;;5092957;28;19916;-68
2021/06/06 07:59:05;;;;;;;;;;;14.90;99.90;;;;;;5093900;28;20448;-68
2021/06/06 08:01:31;;;;;;;;;;;14.90;99.90;;;;;;5093888;28;20217;-69
2021/06/06 08:03:58;;;;;;;;;;;14.90;99.90;;;;;;5093723;28;19912;-68
2021/06/06 08:06:24;;;;;;;;;;;14.90;99.90;;;;;;5093067;28;19912;-68
2021/06/06 08:08:50;;;;;;;;;;;14.80;99.90;;;;;;5092073;28;19957;-68
2021/06/06 08:11:15;;;;;;;;;;;14.90;99.90;;;;;;5093436;28;19960;-68
2021/06/06 08:13:41;;;;;;;;;;;14.90;99.90;;;;;;5093748;28;19972;-68
2021/06/06 08:16:07;;;;;;;;;;;15.00;99.90;;;;;;5092811;28;20027;-68
2021/06/06 08:18:35;;;;;;;;;;;15.10;99.90;;;;;;5093694;28;19916;-68
2021/06/06 08:21:04;;;;;;;;;;;15.20;99.90;;;;;;5093635;28;20384;-69
2021/06/06 08:23:30;;;;;;;;;;;15.30;99.90;;;;;;5087770;28;19908;-69
2021/06/06 08:25:56;;;;;;;;;;;15.30;99.90;;;;;;5092284;28;19908;-68
2021/06/06 08:28:22;;;;;;;;;;;15.20;99.90;;;;;;5093433;28;19987;-68
2021/06/06 08:30:50;;;;;;;;;;;15.10;99.90;;;;;;5093385;28;19955;-68
2021/06/06 08:33:16;;;;;;;;;;;15.10;99.90;;;;;;5093259;28;19962;-68
2021/06/06 08:35:42;;;;;;;;;;;15.10;99.90;;;;;;5092188;28;19916;-69
2021/06/06 08:38:08;;;;;;;;;;;15.10;99.90;;;;;;5093357;28;19912;-68
2021/06/06 08:40:39;;;;;;;;;;;15.10;99.90;;;;;;5092744;28;19923;-68
2021/06/06 08:43:06;;;;;;;;;;;15.10;99.90;;;;;;5093218;28;20377;-70
2021/06/06 08:45:45;;;;;;;;;;;15.10;99.90;;;;;;5092753;28;19966;-68
2021/06/06 08:48:11;;;;;;;;;;;15.20;99.90;;;;;;5093069;28;19915;-68
2021/06/06 08:50:39;;;;;;;;;;;15.20;99.90;;;;;;5092930;28;19908;-68
2021/06/06 08:53:23;;;;;;;;;;;15.10;99.90;;;;;;5088895;28;20373;-69
2021/06/06 08:56:02;;;;;;;;;;;15.00;99.90;;;;;;5084506;28;19949;-69
2021/06/06 08:58:30;;;;;;;;;;;15.00;99.90;;;;;;5092680;28;19909;-68
2021/06/06 09:01:15;;;;;;;;;;;15.00;99.90;;;;;;5092709;28;19953;-69
2021/06/06 09:03:41;;;;;;;;;;;15.00;99.90;;;;;;5092607;28;19908;-69
2021/06/06 09:06:08;;;;;;;;;;;15.00;99.90;;;;;;5091763;28;19908;-69
2021/06/06 09:08:35;;;;;;;;;;;15.00;99.90;;;;;;5092326;28;20012;-69
2021/06/06 09:11:04;;;;;;;;;;;15.00;99.90;;;;;;5092777;28;20429;-69
2021/06/06 09:13:33;;;;;;;;;;;15.00;99.90;;;;;;5092500;28;20014;-68
2021/06/06 09:16:16;;;;;;;;;;;15.00;99.90;;;;;;5091261;28;19924;-69
2021/06/06 09:18:46;;;;;;;;;;;15.10;99.90;;;;;;5092375;28;19961;-68
2021/06/06 09:21:14;;;;;;;;;;;15.20;99.90;;;;;;5092547;28;20350;-68
2021/06/06 09:23:40;;;;;;;;;;;15.30;99.90;;;;;;5084915;28;20434;-68
2021/06/06 09:26:10;;;;;;;;;;;15.30;99.90;;;;;;5091155;28;19912;-69
2021/06/06 09:28:43;;;;;;;;;;;15.30;99.90;;;;;;5092223;28;20373;-68
2021/06/06 09:31:20;;;;;;;;;;;15.40;99.90;;;;;;5092280;28;19909;-68
2021/06/06 09:33:51;;;;;;;;;;;15.40;99.90;;;;;;5092217;28;19994;-69
2021/06/06 09:36:25;;;;;;;;;;;15.50;99.90;;;;;;5091310;28;19912;-69
2021/06/06 09:38:54;;;;;;;;;;;15.50;99.90;;;;;;5091598;28;19912;-69
2021/06/06 09:41:40;;;;;;;;;;;15.40;99.90;;;;;;5091981;28;19969;-67
2021/06/06 09:44:06;;;;;;;;;;;15.30;99.90;;;;;;5091734;28;19908;-69
2021/06/06 09:46:36;;;;;;;;;;;15.20;99.90;;;;;;5091034;28;19912;-68
2021/06/06 09:49:11;;;;;;;;;;;15.20;99.90;;;;;;5091985;28;19908;-69
2021/06/06 09:51:37;;;;;;;;;;;15.10;99.90;;;;;;5083724;28;19958;-68
2021/06/06 09:54:11;;;;;;;;;;;15.10;99.90;;;;;;5089972;28;20317;-67
2021/06/06 09:56:37;;;;;;;;;;;15.10;99.90;;;;;;5090798;28;19919;-69
2021/06/06 09:59:10;;;;;;;;;;;15.20;99.90;;;;;;5091654;28;19994;-69
2021/06/06 10:01:37;;;;;;;;;;;15.30;99.90;;;;;;5091647;28;19947;-69
2021/06/06 10:04:04;;;;;;;;;;;15.50;99.90;;;;;;5091529;28;20288;-68
2021/06/06 10:06:30;;;;;;;;;;;15.50;99.90;;;;;;5090893;28;19964;-68
2021/06/06 10:08:59;;;;;;;;;;;15.50;99.90;;;;;;5091233;28;19991;-68
2021/06/06 10:11:29;;;;;;;;;;;15.50;99.90;;;;;;5091633;28;19919;-68
2021/06/06 10:13:54;;;;;;;;;;;15.50;99.90;;;;;;5091408;28;19923;-69
2021/06/06 10:16:31;;;;;;;;;;;15.40;99.90;;;;;;5090466;28;19912;-68
2021/06/06 10:19:00;;;;;;;;;;;15.40;99.90;;;;;;5091320;28;19908;-68
2021/06/06 10:21:26;;;;;;;;;;;15.40;99.90;;;;;;5084243;28;19993;-69
2021/06/06 10:23:54;;;;;;;;;;;15.50;99.90;;;;;;5090863;28;20486;-68
2021/06/06 10:26:20;;;;;;;;;;;15.50;99.90;;;;;;5090533;28;20001;-69
2021/06/06 10:28:50;;;;;;;;;;;15.50;99.90;;;;;;5090975;28;19989;-68
2021/06/06 10:31:31;;;;;;;;;;;15.50;99.90;;;;;;5091301;28;19940;-68
2021/06/06 10:33:56;;;;;;;;;;;15.50;99.90;;;;;;5091086;28;19915;-68
2021/06/06 10:36:24;;;;;;;;;;;15.50;99.90;;;;;;5090347;28;19912;-69
2021/06/06 10:38:50;;;;;;;;;;;15.50;99.90;;;;;;5090661;28;19965;-68
2021/06/06 10:41:18;;;;;;;;;;;15.50;99.90;;;;;;5091100;28;19973;-69
2021/06/06 10:43:49;;;;;;;;;;;15.40;99.90;;;;;;5091140;28;19908;-68
2021/06/06 10:46:34;;;;;;;;;;;15.40;99.90;;;;;;5090378;28;19908;-69
2021/06/06 10:49:00;;;;;;;;;;;15.50;99.90;;;;;;5085754;28;20067;-69
2021/06/06 10:51:40;;;;;;;;;;;15.70;99.90;;;;;;5088836;28;19969;-68
2021/06/06 10:54:25;;;;;;;;;;;15.80;99.90;;;;;;5090848;28;20352;-68
2021/06/06 10:56:53;;;;;;;;;;;15.90;99.90;;;;;;5090254;28;19912;-68
2021/06/06 10:59:30;;;;;;;;;;;16.00;99.90;;;;;;5091018;28;19916;-69
2021/06/06 11:01:56;;;;;;;;;;;16.00;99.90;;;;;;5091012;28;19908;-68
2021/06/06 11:04:23;;;;;;;;;;;16.00;99.90;;;;;;5090745;28;19935;-69
2021/06/06 11:07:00;;;;;;;;;;;16.00;99.90;;;;;;5090059;28;19908;-69
2021/06/06 11:09:31;;;;;;;;;;;16.00;99.90;;;;;;5090670;28;20552;-69
2021/06/06 11:12:11;;;;;;;;;;;16.00;99.90;;;;;;5090939;28;19912;-69
2021/06/06 11:14:39;;;;;;;;;;;16.00;99.90;;;;;;5090599;28;19916;-69
2021/06/06 11:17:09;;;;;;;;;;;15.90;99.90;;;;;;5090149;28;19939;-68
2021/06/06 11:19:35;;;;;;;;;;;15.80;99.90;;;;;;5084167;28;19969;-68
2021/06/06 11:22:06;;;;;;;;;;;15.80;99.90;;;;;;5090864;28;20331;-67
2021/06/06 11:24:44;;;;;;;;;;;15.60;99.90;;;;;;5085581;28;19908;-69
2021/06/06 11:27:09;;;;;;;;;;;15.60;99.90;;;;;;5089651;28;19962;-68
2021/06/06 11:29:41;;;;;;;;;;;15.70;99.90;;;;;;5090694;28;19908;-69
2021/06/06 11:32:18;;;;;;;;;;;15.70;99.90;;;;;;5090813;28;19908;-69
2021/06/06 11:34:45;;;;;;;;;;;15.80;99.90;;;;;;5090606;28;19911;-69
2021/06/06 11:37:28;;;;;;;;;;;15.90;99.90;;;;;;5089868;28;19916;-69
2021/06/06 11:39:55;;;;;;;;;;;16.00;99.90;;;;;;5090615;28;19923;-69
2021/06/06 11:42:41;;;;;;;;;;;16.10;99.90;;;;;;5090693;28;19987;-69
2021/06/06 11:45:08;;;;;;;;;;;16.10;99.90;;;;;;5090458;28;19908;-69
2021/06/06 11:47:41;;;;;;;;;;;16.20;99.90;;;;;;5093239;28;19951;-68
2021/06/06 11:50:10;;;;;;;;;;;16.10;99.90;;;;;;5093993;28;20296;-69
2021/06/06 11:52:35;;;;;;;;;;;16.10;99.90;;;;;;5094182;28;19909;-69
2021/06/06 11:55:06;;;;;;;;;;;16.20;99.90;;;;;;5089406;28;19915;-69
2021/06/06 11:57:39;;;;;;;;;;;16.20;99.90;;;;;;5093049;28;19920;-69
2021/06/06 12:00:11;;;;;;;;;;;16.30;99.90;;;;;;5094038;28;19973;-69
2021/06/06 12:02:37;;;;;;;;;;;16.20;99.90;;;;;;5093843;28;19908;-69
2021/06/06 12:05:32;;;;;;;;;;;16.30;99.90;;;;;;5093794;28;19998;-69
2021/06/06 12:08:11;;;;;;;;;;;16.30;99.90;;;;;;5084000;28;19908;-68
2021/06/06 12:10:39;;;;;;;;;;;16.20;99.90;;;;;;5093602;28;19962;-69
2021/06/06 12:13:06;;;;;;;;;;;16.10;99.90;;;;;;5093578;28;19912;-69
2021/06/06 12:15:36;;;;;;;;;;;16.00;99.90;;;;;;5093266;28;19916;-68
2021/06/06 12:18:05;;;;;;;;;;;15.90;99.90;;;;;;5093227;28;19908;-69
2021/06/06 12:20:32;;;;;;;;;;;15.90;99.90;;;;;;5093648;28;20015;-69
2021/06/06 12:23:04;;;;;;;;;;;15.90;99.90;;;;;;5089798;28;19969;-69
2021/06/06 12:25:30;;;;;;;;;;;16.00;99.90;;;;;;5091220;28;19912;-68
2021/06/06 12:28:13;;;;;;;;;;;16.00;99.90;;;;;;5093123;28;19908;-69
2021/06/06 12:31:02;;;;;;;;;;;15.90;99.90;;;;;;5094612;28;19908;-68
2021/06/06 12:33:32;;;;;;;;;;;15.80;99.90;;;;;;5094065;28;19995;-69
2021/06/06 12:36:01;;;;;;;;;;;15.70;99.90;;;;;;5092917;28;19912;-69
2021/06/06 12:38:27;;;;;;;;;;;15.80;99.90;;;;;;5093870;28;19909;-69
2021/06/06 12:40:53;;;;;;;;;;;15.70;99.90;;;;;;5093354;28;19970;-69
2021/06/06 12:43:23;;;;;;;;;;;15.70;99.90;;;;;;5093840;28;19916;-68
2021/06/06 12:45:48;;;;;;;;;;;15.70;99.90;;;;;;5092943;28;20029;-69
2021/06/06 12:48:25;;;;;;;;;;;15.70;99.90;;;;;;5093766;28;20007;-68
2021/06/06 12:50:51;;;;;;;;;;;15.80;99.90;;;;;;5093715;28;19951;-68
2021/06/06 12:53:31;;;;;;;;;;;15.80;99.90;;;;;;5088362;28;19909;-69
2021/06/06 12:56:11;;;;;;;;;;;15.90;99.90;;;;;;5098104;28;20402;-69
2021/06/06 12:58:38;;;;;;;;;;;15.90;99.90;;;;;;5112831;28;20360;-69
2021/06/06 13:01:30;;;;;;;;;;;15.90;99.90;;;;;;5113800;28;19908;-69
2021/06/06 13:03:56;;;;;;;;;;;16.00;99.90;;;;;;5110822;28;19911;-69
2021/06/06 13:06:24;;;;;;;;;;;16.00;99.90;;;;;;5113050;28;19994;-69
2021/06/06 13:08:51;;;;;;;;;;;16.00;99.90;;;;;;5113449;28;19954;-69
2021/06/06 13:11:20;;;;;;;;;;;16.00;99.90;;;;;;5113576;28;19907;-69
2021/06/06 13:13:47;;;;;;;;;;;16.10;99.90;;;;;;5113635;28;19915;-68
2021/06/06 13:16:18;;;;;;;;;;;16.10;99.90;;;;;;5112601;28;19922;-69
2021/06/06 13:18:58;;;;;;;;;;;16.10;99.90;;;;;;5113506;28;20265;-69
2021/06/06 13:21:26;;;;;;;;;;;16.10;99.90;;;;;;5113536;28;20384;-69
2021/06/06 13:23:52;;;;;;;;;;;16.00;99.90;;;;;;5100649;28;19912;-68
2021/06/06 13:26:21;;;;;;;;;;;16.00;99.90;;;;;;5095119;28;20387;-69
2021/06/06 13:28:58;;;;;;;;;;;16.00;99.90;;;;;;5092897;28;19914;-71
2021/06/06 13:31:32;;;;;;;;;;;16.00;99.90;;;;;;5092974;28;19919;-68
2021/06/06 13:33:58;;;;;;;;;;;16.00;99.90;;;;;;5092735;28;19948;-70
2021/06/06 13:36:24;;;;;;;;;;;16.00;99.90;;;;;;5091860;28;19916;-71
2021/06/06 13:38:49;;;;;;;;;;;15.90;99.90;;;;;;5092511;28;20361;-68
2021/06/06 13:41:15;;;;;;;;;;;15.90;99.90;;;;;;5092608;28;19970;-68
2021/06/06 13:43:40;;;;;;;;;;;15.80;99.90;;;;;;5092800;28;19912;-68
2021/06/06 13:46:06;;;;;;;;;;;15.80;99.90;;;;;;5091746;28;19912;-68
2021/06/06 13:48:34;;;;;;;;;;;15.80;99.90;;;;;;5092563;28;19998;-69
2021/06/06 13:51:02;;;;;;;;;;;15.80;99.90;;;;;;5092433;28;20003;-68
2021/06/06 13:53:28;;;;;;;;;;;15.90;99.90;;;;;;5088804;28;19915;-68
2021/06/06 13:55:54;;;;;;;;;;;15.90;99.90;;;;;;5111988;28;20026;-71
2021/06/06 13:58:21;;;;;;;;;;;15.90;99.90;;;;;;5112646;28;19958;-68
2021/06/06 14:00:47;;;;;;;;;;;15.90;99.90;;;;;;5112825;28;19907;-68
2021/06/06 14:03:18;;;;;;;;;;;15.80;99.90;;;;;;5112690;28;19908;-68
2021/06/06 14:05:44;;;;;;;;;;;15.80;99.90;;;;;;5111786;28;20456;-70
2021/06/06 14:08:10;;;;;;;;;;;15.90;99.90;;;;;;5112188;28;20011;-68
2021/06/06 14:10:41;;;;;;;;;;;15.90;99.90;;;;;;5112293;28;20372;-68
2021/06/06 14:13:08;;;;;;;;;;;15.90;99.90;;;;;;5112514;28;19914;-68
2021/06/06 14:15:34;;;;;;;;;;;15.80;99.90;;;;;;5112211;28;20006;-68
2021/06/06 14:17:59;;;;;;;;;;;15.90;99.90;;;;;;5111088;28;19908;-68
2021/06/06 14:20:25;;;;;;;;;;;15.90;99.90;;;;;;5112404;28;19960;-68
2021/06/06 14:22:53;;;;;;;;;;;15.80;99.90;;;;;;5108644;28;19908;-68